sensor_id;sensor_type;location;lat;lon;timestamp;P1;durP1;ratioP1;P2;durP2;ratioP2
49948;SDS011;35840;45.982;8.890;2023-04-12T00:00:54;5.20;;;3.03;;
49948;SDS011;35840;45.982;8.890;2023-04-12T00:03:21;3.70;;;2.83;;
49948;SDS011;35840;45.982;8.890;2023-04-12T00:05:48;3.85;;;3.17;;
49948;SDS011;35840;45.982;8.890;2023-04-12T00:08:23;5.65;;;2.92;;
49948;SDS011;35840;45.982;8.890;2023-04-12T00:10:52;4.97;;;2.75;;
49948;SDS011;35840;45.982;8.890;2023-04-12T00:13:18;3.10;;;2.80;;
49948;SDS011;35840;45.982;8.890;2023-04-12T00:15:45;5.05;;;3.13;;
49948;SDS011;35840;45.982;8.890;2023-04-12T00:18:12;5.97;;;3.25;;
49948;SDS011;35840;45.982;8.890;2023-04-12T00:20:39;6.93;;;3.40;;
49948;SDS011;35840;45.982;8.890;2023-04-12T00:23:06;4.68;;;3.22;;
49948;SDS011;35840;45.982;8.890;2023-04-12T00:25:35;4.53;;;2.40;;
49948;SDS011;35840;45.982;8.890;2023-04-12T00:28:04;6.43;;;3.80;;
49948;SDS011;35840;45.982;8.890;2023-04-12T00:30:31;5.82;;;3.42;;
49948;SDS011;35840;45.982;8.890;2023-04-12T00:32:58;4.85;;;3.30;;
49948;SDS011;35840;45.982;8.890;2023-04-12T00:35:25;7.68;;;3.40;;
49948;SDS011;35840;45.982;8.890;2023-04-12T00:37:52;3.75;;;3.10;;
49948;SDS011;35840;45.982;8.890;2023-04-12T00:40:20;5.85;;;3.50;;
49948;SDS011;35840;45.982;8.890;2023-04-12T00:42:46;4.68;;;3.30;;
49948;SDS011;35840;45.982;8.890;2023-04-12T00:45:13;6.00;;;3.47;;
49948;SDS011;35840;45.982;8.890;2023-04-12T00:47:41;5.57;;;3.67;;
49948;SDS011;35840;45.982;8.890;2023-04-12T00:50:09;4.90;;;2.83;;
49948;SDS011;35840;45.982;8.890;2023-04-12T00:52:36;9.48;;;3.67;;
49948;SDS011;35840;45.982;8.890;2023-04-12T00:55:05;6.38;;;3.80;;
49948;SDS011;35840;45.982;8.890;2023-04-12T00:57:33;7.53;;;3.38;;
49948;SDS011;35840;45.982;8.890;2023-04-12T01:00:05;4.55;;;2.90;;
49948;SDS011;35840;45.982;8.890;2023-04-12T01:02:41;4.65;;;2.72;;
49948;SDS011;35840;45.982;8.890;2023-04-12T01:05:16;6.85;;;3.33;;
49948;SDS011;35840;45.982;8.890;2023-04-12T01:10:55;5.15;;;3.10;;
49948;SDS011;35840;45.982;8.890;2023-04-12T01:13:54;7.27;;;3.33;;
49948;SDS011;35840;45.982;8.890;2023-04-12T01:16:38;4.88;;;3.08;;
49948;SDS011;35840;45.982;8.890;2023-04-12T01:25:03;5.00;;;3.58;;
49948;SDS011;35840;45.982;8.890;2023-04-12T01:27:56;8.13;;;3.42;;
49948;SDS011;35840;45.982;8.890;2023-04-12T01:30:25;6.15;;;3.90;;
49948;SDS011;35840;45.982;8.890;2023-04-12T01:32:55;7.45;;;3.78;;
49948;SDS011;35840;45.982;8.890;2023-04-12T01:35:26;5.82;;;3.42;;
49948;SDS011;35840;45.982;8.890;2023-04-12T01:37:58;5.30;;;3.50;;
49948;SDS011;35840;45.982;8.890;2023-04-12T01:40:27;8.73;;;3.97;;
49948;SDS011;35840;45.982;8.890;2023-04-12T01:43:08;9.05;;;3.53;;
49948;SDS011;35840;45.982;8.890;2023-04-12T01:45:37;4.95;;;3.17;;
49948;SDS011;35840;45.982;8.890;2023-04-12T01:48:09;5.53;;;3.40;;
49948;SDS011;35840;45.982;8.890;2023-04-12T01:50:47;5.95;;;4.03;;
49948;SDS011;35840;45.982;8.890;2023-04-12T01:53:23;7.18;;;3.55;;
49948;SDS011;35840;45.982;8.890;2023-04-12T01:56:04;7.45;;;3.78;;
49948;SDS011;35840;45.982;8.890;2023-04-12T01:58:34;8.45;;;3.92;;
49948;SDS011;35840;45.982;8.890;2023-04-12T02:01:02;5.30;;;3.72;;
49948;SDS011;35840;45.982;8.890;2023-04-12T02:03:31;4.65;;;3.00;;
49948;SDS011;35840;45.982;8.890;2023-04-12T02:05:59;5.28;;;3.42;;
49948;SDS011;35840;45.982;8.890;2023-04-12T02:08:27;9.50;;;5.40;;
49948;SDS011;35840;45.982;8.890;2023-04-12T02:10:54;7.00;;;3.20;;
49948;SDS011;35840;45.982;8.890;2023-04-12T02:13:21;3.70;;;3.25;;
49948;SDS011;35840;45.982;8.890;2023-04-12T02:15:48;4.30;;;2.95;;
49948;SDS011;35840;45.982;8.890;2023-04-12T02:18:15;4.43;;;3.30;;
49948;SDS011;35840;45.982;8.890;2023-04-12T02:20:42;6.85;;;2.83;;
49948;SDS011;35840;45.982;8.890;2023-04-12T02:23:09;5.82;;;3.40;;
49948;SDS011;35840;45.982;8.890;2023-04-12T02:25:36;3.60;;;3.20;;
49948;SDS011;35840;45.982;8.890;2023-04-12T02:28:04;5.20;;;3.10;;
49948;SDS011;35840;45.982;8.890;2023-04-12T02:30:33;4.13;;;2.75;;
49948;SDS011;35840;45.982;8.890;2023-04-12T02:33:00;5.32;;;3.70;;
49948;SDS011;35840;45.982;8.890;2023-04-12T02:35:32;3.92;;;3.38;;
49948;SDS011;35840;45.982;8.890;2023-04-12T02:38:04;4.00;;;3.00;;
49948;SDS011;35840;45.982;8.890;2023-04-12T02:40:39;7.53;;;3.10;;
49948;SDS011;35840;45.982;8.890;2023-04-12T02:43:09;5.55;;;2.80;;
49948;SDS011;35840;45.982;8.890;2023-04-12T02:45:40;4.95;;;3.00;;
49948;SDS011;35840;45.982;8.890;2023-04-12T02:48:08;5.32;;;3.08;;
49948;SDS011;35840;45.982;8.890;2023-04-12T02:50:36;3.28;;;3.00;;
49948;SDS011;35840;45.982;8.890;2023-04-12T02:53:11;6.63;;;2.78;;
49948;SDS011;35840;45.982;8.890;2023-04-12T02:55:40;3.90;;;3.13;;
49948;SDS011;35840;45.982;8.890;2023-04-12T02:58:08;2.60;;;2.40;;
49948;SDS011;35840;45.982;8.890;2023-04-12T03:00:41;4.85;;;2.55;;
49948;SDS011;35840;45.982;8.890;2023-04-12T03:03:12;3.33;;;2.70;;
49948;SDS011;35840;45.982;8.890;2023-04-12T03:05:39;2.97;;;2.38;;
49948;SDS011;35840;45.982;8.890;2023-04-12T03:08:06;2.90;;;2.60;;
49948;SDS011;35840;45.982;8.890;2023-04-12T03:10:43;3.83;;;2.92;;
49948;SDS011;35840;45.982;8.890;2023-04-12T03:13:10;4.93;;;3.35;;
49948;SDS011;35840;45.982;8.890;2023-04-12T03:15:41;3.60;;;3.08;;
49948;SDS011;35840;45.982;8.890;2023-04-12T03:18:12;4.75;;;2.92;;
49948;SDS011;35840;45.982;8.890;2023-04-12T03:20:45;6.43;;;2.80;;
49948;SDS011;35840;45.982;8.890;2023-04-12T03:23:14;5.55;;;3.50;;
49948;SDS011;35840;45.982;8.890;2023-04-12T03:25:54;3.13;;;2.65;;
49948;SDS011;35840;45.982;8.890;2023-04-12T03:28:41;7.20;;;3.17;;
49948;SDS011;35840;45.982;8.890;2023-04-12T03:31:08;3.22;;;2.78;;
49948;SDS011;35840;45.982;8.890;2023-04-12T03:33:44;11.18;;;3.67;;
49948;SDS011;35840;45.982;8.890;2023-04-12T03:36:19;5.00;;;2.72;;
49948;SDS011;35840;45.982;8.890;2023-04-12T03:38:52;3.95;;;3.03;;
49948;SDS011;35840;45.982;8.890;2023-04-12T03:41:21;7.05;;;3.17;;
49948;SDS011;35840;45.982;8.890;2023-04-12T03:43:48;3.63;;;2.78;;
49948;SDS011;35840;45.982;8.890;2023-04-12T03:46:17;8.07;;;3.60;;
49948;SDS011;35840;45.982;8.890;2023-04-12T03:48:50;5.43;;;3.20;;
49948;SDS011;35840;45.982;8.890;2023-04-12T03:51:19;9.05;;;3.85;;
49948;SDS011;35840;45.982;8.890;2023-04-12T03:53:47;7.88;;;4.80;;
49948;SDS011;35840;45.982;8.890;2023-04-12T03:56:14;6.85;;;5.60;;
49948;SDS011;35840;45.982;8.890;2023-04-12T03:58:45;9.05;;;6.60;;
49948;SDS011;35840;45.982;8.890;2023-04-12T04:01:14;8.10;;;7.13;;
49948;SDS011;35840;45.982;8.890;2023-04-12T04:03:43;9.57;;;7.55;;
49948;SDS011;35840;45.982;8.890;2023-04-12T04:06:21;7.35;;;6.57;;
49948;SDS011;35840;45.982;8.890;2023-04-12T04:08:52;7.25;;;6.35;;
49948;SDS011;35840;45.982;8.890;2023-04-12T04:11:19;13.48;;;7.07;;
49948;SDS011;35840;45.982;8.890;2023-04-12T04:13:50;8.45;;;6.25;;
49948;SDS011;35840;45.982;8.890;2023-04-12T04:16:18;6.95;;;6.25;;
49948;SDS011;35840;45.982;8.890;2023-04-12T04:18:47;9.88;;;6.90;;
49948;SDS011;35840;45.982;8.890;2023-04-12T04:21:17;6.88;;;5.70;;
49948;SDS011;35840;45.982;8.890;2023-04-12T04:23:45;7.63;;;6.05;;
49948;SDS011;35840;45.982;8.890;2023-04-12T04:26:14;9.32;;;5.47;;
49948;SDS011;35840;45.982;8.890;2023-04-12T04:28:53;7.22;;;5.70;;
49948;SDS011;35840;45.982;8.890;2023-04-12T04:31:25;6.00;;;5.30;;
49948;SDS011;35840;45.982;8.890;2023-04-12T04:33:52;7.38;;;4.88;;
49948;SDS011;35840;45.982;8.890;2023-04-12T04:36:26;7.00;;;5.43;;
49948;SDS011;35840;45.982;8.890;2023-04-12T04:38:54;9.77;;;5.53;;
49948;SDS011;35840;45.982;8.890;2023-04-12T04:41:42;11.75;;;6.10;;
49948;SDS011;35840;45.982;8.890;2023-04-12T04:44:22;7.55;;;5.03;;
49948;SDS011;35840;45.982;8.890;2023-04-12T04:46:54;6.88;;;5.53;;
49948;SDS011;35840;45.982;8.890;2023-04-12T04:49:23;9.57;;;6.28;;
49948;SDS011;35840;45.982;8.890;2023-04-12T04:51:50;6.50;;;5.53;;
49948;SDS011;35840;45.982;8.890;2023-04-12T04:54:19;8.30;;;5.90;;
49948;SDS011;35840;45.982;8.890;2023-04-12T04:56:46;8.70;;;6.22;;
49948;SDS011;35840;45.982;8.890;2023-04-12T04:59:16;6.88;;;5.72;;
49948;SDS011;35840;45.982;8.890;2023-04-12T05:01:43;9.07;;;6.63;;
49948;SDS011;35840;45.982;8.890;2023-04-12T05:04:10;6.88;;;6.00;;
49948;SDS011;35840;45.982;8.890;2023-04-12T05:06:37;10.35;;;6.10;;
49948;SDS011;35840;45.982;8.890;2023-04-12T05:09:06;9.65;;;6.05;;
49948;SDS011;35840;45.982;8.890;2023-04-12T05:11:39;9.15;;;5.50;;
49948;SDS011;35840;45.982;8.890;2023-04-12T05:14:09;10.32;;;6.25;;
49948;SDS011;35840;45.982;8.890;2023-04-12T05:16:38;7.78;;;6.07;;
49948;SDS011;35840;45.982;8.890;2023-04-12T05:19:05;8.20;;;6.47;;
49948;SDS011;35840;45.982;8.890;2023-04-12T05:21:33;7.65;;;5.93;;
49948;SDS011;35840;45.982;8.890;2023-04-12T05:24:00;9.90;;;7.05;;
49948;SDS011;35840;45.982;8.890;2023-04-12T05:26:29;7.50;;;6.13;;
49948;SDS011;35840;45.982;8.890;2023-04-12T05:28:57;9.10;;;6.70;;
49948;SDS011;35840;45.982;8.890;2023-04-12T05:31:24;9.30;;;6.35;;
49948;SDS011;35840;45.982;8.890;2023-04-12T05:33:51;7.68;;;6.43;;
49948;SDS011;35840;45.982;8.890;2023-04-12T05:36:24;8.80;;;6.70;;
49948;SDS011;35840;45.982;8.890;2023-04-12T05:38:51;9.70;;;6.85;;
49948;SDS011;35840;45.982;8.890;2023-04-12T05:41:18;9.68;;;7.30;;
49948;SDS011;35840;45.982;8.890;2023-04-12T05:43:46;11.00;;;7.20;;
49948;SDS011;35840;45.982;8.890;2023-04-12T05:46:13;9.65;;;7.70;;
49948;SDS011;35840;45.982;8.890;2023-04-12T05:48:43;14.30;;;7.57;;
49948;SDS011;35840;45.982;8.890;2023-04-12T05:51:10;11.98;;;8.00;;
49948;SDS011;35840;45.982;8.890;2023-04-12T05:53:37;12.63;;;8.30;;
49948;SDS011;35840;45.982;8.890;2023-04-12T05:56:06;14.35;;;7.63;;
49948;SDS011;35840;45.982;8.890;2023-04-12T05:58:33;10.85;;;7.72;;
49948;SDS011;35840;45.982;8.890;2023-04-12T06:01:00;8.93;;;7.20;;
49948;SDS011;35840;45.982;8.890;2023-04-12T06:03:27;10.18;;;7.82;;
49948;SDS011;35840;45.982;8.890;2023-04-12T06:06:01;12.05;;;8.07;;
49948;SDS011;35840;45.982;8.890;2023-04-12T06:08:29;10.70;;;9.20;;
49948;SDS011;35840;45.982;8.890;2023-04-12T06:10:56;12.73;;;9.55;;
49948;SDS011;35840;45.982;8.890;2023-04-12T06:13:25;12.45;;;8.95;;
49948;SDS011;35840;45.982;8.890;2023-04-12T06:15:52;12.55;;;8.45;;
49948;SDS011;35840;45.982;8.890;2023-04-12T06:18:19;14.00;;;9.65;;
49948;SDS011;35840;45.982;8.890;2023-04-12T06:20:46;15.50;;;10.60;;
49948;SDS011;35840;45.982;8.890;2023-04-12T06:23:13;15.75;;;10.32;;
49948;SDS011;35840;45.982;8.890;2023-04-12T06:25:40;14.82;;;10.77;;
49948;SDS011;35840;45.982;8.890;2023-04-12T06:28:07;13.00;;;10.23;;
49948;SDS011;35840;45.982;8.890;2023-04-12T06:30:41;14.50;;;10.38;;
49948;SDS011;35840;45.982;8.890;2023-04-12T06:33:08;18.90;;;11.02;;
49948;SDS011;35840;45.982;8.890;2023-04-12T06:35:35;13.77;;;10.30;;
49948;SDS011;35840;45.982;8.890;2023-04-12T06:38:02;15.00;;;9.48;;
49948;SDS011;35840;45.982;8.890;2023-04-12T06:40:28;13.07;;;8.60;;
49948;SDS011;35840;45.982;8.890;2023-04-12T06:42:55;12.52;;;8.70;;
49948;SDS011;35840;45.982;8.890;2023-04-12T06:45:22;13.88;;;8.50;;
49948;SDS011;35840;45.982;8.890;2023-04-12T06:47:49;12.77;;;8.30;;
49948;SDS011;35840;45.982;8.890;2023-04-12T06:50:16;11.50;;;7.65;;
49948;SDS011;35840;45.982;8.890;2023-04-12T06:52:43;13.05;;;8.65;;
49948;SDS011;35840;45.982;8.890;2023-04-12T06:55:10;12.82;;;7.63;;
49948;SDS011;35840;45.982;8.890;2023-04-12T06:57:37;12.35;;;8.20;;
49948;SDS011;35840;45.982;8.890;2023-04-12T07:00:04;13.02;;;7.63;;
49948;SDS011;35840;45.982;8.890;2023-04-12T07:02:31;16.02;;;8.18;;
49948;SDS011;35840;45.982;8.890;2023-04-12T07:04:58;15.07;;;8.00;;
49948;SDS011;35840;45.982;8.890;2023-04-12T07:07:25;11.77;;;7.68;;
49948;SDS011;35840;45.982;8.890;2023-04-12T07:09:51;11.82;;;7.28;;
49948;SDS011;35840;45.982;8.890;2023-04-12T07:12:18;12.10;;;7.63;;
49948;SDS011;35840;45.982;8.890;2023-04-12T07:14:45;12.30;;;7.20;;
49948;SDS011;35840;45.982;8.890;2023-04-12T07:17:12;11.20;;;7.35;;
49948;SDS011;35840;45.982;8.890;2023-04-12T07:19:39;12.48;;;7.95;;
49948;SDS011;35840;45.982;8.890;2023-04-12T07:22:07;17.13;;;8.73;;
49948;SDS011;35840;45.982;8.890;2023-04-12T07:24:34;11.13;;;7.65;;
49948;SDS011;35840;45.982;8.890;2023-04-12T07:27:01;15.38;;;8.82;;
49948;SDS011;35840;45.982;8.890;2023-04-12T07:29:27;11.90;;;8.23;;
49948;SDS011;35840;45.982;8.890;2023-04-12T07:31:54;13.65;;;8.55;;
49948;SDS011;35840;45.982;8.890;2023-04-12T07:34:21;14.70;;;8.73;;
49948;SDS011;35840;45.982;8.890;2023-04-12T07:36:49;14.40;;;8.68;;
49948;SDS011;35840;45.982;8.890;2023-04-12T07:39:16;14.75;;;8.55;;
49948;SDS011;35840;45.982;8.890;2023-04-12T07:41:43;13.88;;;10.02;;
49948;SDS011;35840;45.982;8.890;2023-04-12T07:44:11;15.60;;;9.65;;
49948;SDS011;35840;45.982;8.890;2023-04-12T07:46:38;12.27;;;8.30;;
49948;SDS011;35840;45.982;8.890;2023-04-12T07:49:07;16.30;;;9.57;;
49948;SDS011;35840;45.982;8.890;2023-04-12T07:51:36;17.15;;;10.02;;
49948;SDS011;35840;45.982;8.890;2023-04-12T07:54:03;16.65;;;9.43;;
49948;SDS011;35840;45.982;8.890;2023-04-12T07:56:32;17.35;;;9.27;;
49948;SDS011;35840;45.982;8.890;2023-04-12T07:58:59;14.95;;;9.20;;
49948;SDS011;35840;45.982;8.890;2023-04-12T08:01:26;15.27;;;9.95;;
49948;SDS011;35840;45.982;8.890;2023-04-12T08:03:53;13.18;;;8.95;;
49948;SDS011;35840;45.982;8.890;2023-04-12T08:06:20;17.70;;;9.95;;
49948;SDS011;35840;45.982;8.890;2023-04-12T08:08:47;13.15;;;8.93;;
49948;SDS011;35840;45.982;8.890;2023-04-12T08:11:14;14.15;;;9.40;;
49948;SDS011;35840;45.982;8.890;2023-04-12T08:13:41;15.63;;;8.80;;
49948;SDS011;35840;45.982;8.890;2023-04-12T08:16:08;15.25;;;8.30;;
49948;SDS011;35840;45.982;8.890;2023-04-12T08:18:34;14.00;;;8.70;;
49948;SDS011;35840;45.982;8.890;2023-04-12T08:21:01;15.70;;;8.90;;
49948;SDS011;35840;45.982;8.890;2023-04-12T08:23:28;15.27;;;8.65;;
49948;SDS011;35840;45.982;8.890;2023-04-12T08:25:55;12.05;;;8.65;;
49948;SDS011;35840;45.982;8.890;2023-04-12T08:28:29;15.75;;;8.10;;
49948;SDS011;35840;45.982;8.890;2023-04-12T08:30:56;11.88;;;8.30;;
49948;SDS011;35840;45.982;8.890;2023-04-12T08:33:25;13.32;;;8.68;;
49948;SDS011;35840;45.982;8.890;2023-04-12T08:35:52;12.40;;;8.15;;
49948;SDS011;35840;45.982;8.890;2023-04-12T08:38:19;13.80;;;8.77;;
49948;SDS011;35840;45.982;8.890;2023-04-12T08:41:03;13.20;;;8.60;;
49948;SDS011;35840;45.982;8.890;2023-04-12T08:43:31;12.77;;;8.65;;
49948;SDS011;35840;45.982;8.890;2023-04-12T08:45:59;12.30;;;8.35;;
49948;SDS011;35840;45.982;8.890;2023-04-12T08:48:26;14.65;;;8.88;;
49948;SDS011;35840;45.982;8.890;2023-04-12T08:50:55;18.80;;;8.38;;
49948;SDS011;35840;45.982;8.890;2023-04-12T08:53:23;15.35;;;8.68;;
49948;SDS011;35840;45.982;8.890;2023-04-12T08:55:50;15.50;;;9.60;;
49948;SDS011;35840;45.982;8.890;2023-04-12T08:58:17;15.48;;;9.30;;
49948;SDS011;35840;45.982;8.890;2023-04-12T09:00:46;16.55;;;9.00;;
49948;SDS011;35840;45.982;8.890;2023-04-12T09:03:13;15.18;;;9.00;;
49948;SDS011;35840;45.982;8.890;2023-04-12T09:05:40;16.48;;;9.10;;
49948;SDS011;35840;45.982;8.890;2023-04-12T09:08:06;13.75;;;8.88;;
49948;SDS011;35840;45.982;8.890;2023-04-12T09:10:35;15.57;;;9.30;;
49948;SDS011;35840;45.982;8.890;2023-04-12T09:13:03;14.77;;;9.02;;
49948;SDS011;35840;45.982;8.890;2023-04-12T09:15:32;16.88;;;9.90;;
49948;SDS011;35840;45.982;8.890;2023-04-12T09:18:03;15.38;;;9.43;;
49948;SDS011;35840;45.982;8.890;2023-04-12T09:20:30;16.25;;;10.00;;
49948;SDS011;35840;45.982;8.890;2023-04-12T09:22:57;13.38;;;9.90;;
49948;SDS011;35840;45.982;8.890;2023-04-12T09:25:40;14.00;;;10.20;;
49948;SDS011;35840;45.982;8.890;2023-04-12T09:28:21;18.05;;;10.45;;
49948;SDS011;35840;45.982;8.890;2023-04-12T09:30:53;16.80;;;10.75;;
49948;SDS011;35840;45.982;8.890;2023-04-12T09:33:22;21.70;;;11.43;;
49948;SDS011;35840;45.982;8.890;2023-04-12T09:36:01;18.33;;;11.02;;
49948;SDS011;35840;45.982;8.890;2023-04-12T09:38:29;19.00;;;10.68;;
49948;SDS011;35840;45.982;8.890;2023-04-12T09:40:56;16.35;;;10.73;;
49948;SDS011;35840;45.982;8.890;2023-04-12T09:43:36;16.48;;;10.75;;
49948;SDS011;35840;45.982;8.890;2023-04-12T09:46:10;22.60;;;11.75;;
49948;SDS011;35840;45.982;8.890;2023-04-12T09:48:39;18.80;;;11.65;;
49948;SDS011;35840;45.982;8.890;2023-04-12T09:51:07;19.15;;;12.65;;
49948;SDS011;35840;45.982;8.890;2023-04-12T09:53:34;16.25;;;11.63;;
49948;SDS011;35840;45.982;8.890;2023-04-12T09:56:03;21.23;;;12.57;;
49948;SDS011;35840;45.982;8.890;2023-04-12T09:58:34;18.70;;;13.00;;
49948;SDS011;35840;45.982;8.890;2023-04-12T10:01:01;21.27;;;12.90;;
49948;SDS011;35840;45.982;8.890;2023-04-12T10:03:29;19.75;;;12.45;;
49948;SDS011;35840;45.982;8.890;2023-04-12T10:05:57;19.02;;;12.23;;
49948;SDS011;35840;45.982;8.890;2023-04-12T10:08:24;19.77;;;12.23;;
49948;SDS011;35840;45.982;8.890;2023-04-12T10:10:52;19.60;;;12.45;;
49948;SDS011;35840;45.982;8.890;2023-04-12T10:13:20;19.52;;;12.40;;
49948;SDS011;35840;45.982;8.890;2023-04-12T10:15:48;22.30;;;12.70;;
49948;SDS011;35840;45.982;8.890;2023-04-12T10:18:17;18.55;;;12.32;;
49948;SDS011;35840;45.982;8.890;2023-04-12T10:20:45;17.88;;;12.05;;
49948;SDS011;35840;45.982;8.890;2023-04-12T10:23:15;17.02;;;11.07;;
49948;SDS011;35840;45.982;8.890;2023-04-12T10:25:44;17.10;;;11.27;;
49948;SDS011;35840;45.982;8.890;2023-04-12T10:28:14;20.00;;;12.55;;
49948;SDS011;35840;45.982;8.890;2023-04-12T10:30:44;20.60;;;12.18;;
49948;SDS011;35840;45.982;8.890;2023-04-12T10:33:15;17.52;;;11.50;;
49948;SDS011;35840;45.982;8.890;2023-04-12T10:36:01;19.90;;;11.70;;
49948;SDS011;35840;45.982;8.890;2023-04-12T10:38:44;17.00;;;11.75;;
49948;SDS011;35840;45.982;8.890;2023-04-12T10:41:18;18.23;;;12.25;;
49948;SDS011;35840;45.982;8.890;2023-04-12T10:43:47;18.90;;;13.93;;
49948;SDS011;35840;45.982;8.890;2023-04-12T10:49:07;22.58;;;13.93;;
49948;SDS011;35840;45.982;8.890;2023-04-12T10:52:09;22.35;;;13.77;;
49948;SDS011;35840;45.982;8.890;2023-04-12T10:56:57;18.83;;;13.00;;
49948;SDS011;35840;45.982;8.890;2023-04-12T11:00:03;20.67;;;13.05;;
49948;SDS011;35840;45.982;8.890;2023-04-12T11:02:24;22.95;;;13.07;;
49948;SDS011;35840;45.982;8.890;2023-04-12T11:05:02;20.70;;;13.00;;
49948;SDS011;35840;45.982;8.890;2023-04-12T11:07:52;18.90;;;12.48;;
49948;SDS011;35840;45.982;8.890;2023-04-12T11:10:39;25.17;;;13.65;;
49948;SDS011;35840;45.982;8.890;2023-04-12T11:13:13;17.98;;;12.93;;
49948;SDS011;35840;45.982;8.890;2023-04-12T11:15:40;25.08;;;14.13;;
49948;SDS011;35840;45.982;8.890;2023-04-12T11:18:10;20.88;;;13.65;;
49948;SDS011;35840;45.982;8.890;2023-04-12T11:20:38;18.75;;;12.98;;
49948;SDS011;35840;45.982;8.890;2023-04-12T11:23:06;22.52;;;13.75;;
49948;SDS011;35840;45.982;8.890;2023-04-12T11:25:36;20.40;;;12.85;;
49948;SDS011;35840;45.982;8.890;2023-04-12T11:28:04;21.05;;;13.73;;
49948;SDS011;35840;45.982;8.890;2023-04-12T11:30:52;20.98;;;13.40;;
49948;SDS011;35840;45.982;8.890;2023-04-12T11:33:33;19.92;;;12.93;;
49948;SDS011;35840;45.982;8.890;2023-04-12T11:36:06;22.55;;;14.65;;
49948;SDS011;35840;45.982;8.890;2023-04-12T11:38:35;18.63;;;12.68;;
49948;SDS011;35840;45.982;8.890;2023-04-12T11:41:03;17.92;;;12.77;;
49948;SDS011;35840;45.982;8.890;2023-04-12T11:43:32;19.50;;;12.32;;
49948;SDS011;35840;45.982;8.890;2023-04-12T11:46:01;19.83;;;13.38;;
49948;SDS011;35840;45.982;8.890;2023-04-12T11:48:27;20.00;;;13.32;;
49948;SDS011;35840;45.982;8.890;2023-04-12T11:50:54;19.13;;;12.88;;
49948;SDS011;35840;45.982;8.890;2023-04-12T11:53:36;20.58;;;13.43;;
49948;SDS011;35840;45.982;8.890;2023-04-12T11:56:03;21.60;;;13.68;;
49948;SDS011;35840;45.982;8.890;2023-04-12T11:58:30;18.73;;;13.07;;
49948;SDS011;35840;45.982;8.890;2023-04-12T12:00:56;20.15;;;12.63;;
49948;SDS011;35840;45.982;8.890;2023-04-12T12:03:25;20.85;;;13.30;;
49948;SDS011;35840;45.982;8.890;2023-04-12T12:05:52;22.23;;;14.23;;
49948;SDS011;35840;45.982;8.890;2023-04-12T12:08:20;26.83;;;14.60;;
49948;SDS011;35840;45.982;8.890;2023-04-12T12:10:46;21.08;;;12.85;;
49948;SDS011;35840;45.982;8.890;2023-04-12T12:16:29;18.50;;;12.90;;
49948;SDS011;35840;45.982;8.890;2023-04-12T12:18:56;24.35;;;13.60;;
49948;SDS011;35840;45.982;8.890;2023-04-12T12:21:23;27.63;;;14.93;;
49948;SDS011;35840;45.982;8.890;2023-04-12T12:23:51;23.30;;;13.45;;
49948;SDS011;35840;45.982;8.890;2023-04-12T12:26:22;23.60;;;14.25;;
49948;SDS011;35840;45.982;8.890;2023-04-12T12:28:51;23.85;;;14.05;;
49948;SDS011;35840;45.982;8.890;2023-04-12T12:31:20;18.90;;;13.25;;
49948;SDS011;35840;45.982;8.890;2023-04-12T12:33:52;20.05;;;12.85;;
49948;SDS011;35840;45.982;8.890;2023-04-12T12:36:35;26.58;;;15.35;;
49948;SDS011;35840;45.982;8.890;2023-04-12T12:39:10;18.63;;;13.27;;
49948;SDS011;35840;45.982;8.890;2023-04-12T12:41:38;19.63;;;13.95;;
49948;SDS011;35840;45.982;8.890;2023-04-12T12:44:06;21.88;;;13.75;;
49948;SDS011;35840;45.982;8.890;2023-04-12T12:46:33;19.58;;;12.90;;
49948;SDS011;35840;45.982;8.890;2023-04-12T12:49:03;20.58;;;14.15;;
49948;SDS011;35840;45.982;8.890;2023-04-12T12:51:30;20.52;;;13.77;;
49948;SDS011;35840;45.982;8.890;2023-04-12T12:53:56;24.83;;;15.00;;
49948;SDS011;35840;45.982;8.890;2023-04-12T12:56:24;21.50;;;14.27;;
49948;SDS011;35840;45.982;8.890;2023-04-12T12:58:50;22.48;;;13.88;;
49948;SDS011;35840;45.982;8.890;2023-04-12T13:01:17;24.85;;;14.88;;
49948;SDS011;35840;45.982;8.890;2023-04-12T13:03:44;18.70;;;13.23;;
49948;SDS011;35840;45.982;8.890;2023-04-12T13:06:11;22.25;;;14.40;;
49948;SDS011;35840;45.982;8.890;2023-04-12T13:08:38;20.05;;;13.10;;
49948;SDS011;35840;45.982;8.890;2023-04-12T13:11:04;20.75;;;13.95;;
49948;SDS011;35840;45.982;8.890;2023-04-12T13:13:31;21.75;;;14.38;;
49948;SDS011;35840;45.982;8.890;2023-04-12T13:15:58;20.35;;;13.93;;
49948;SDS011;35840;45.982;8.890;2023-04-12T13:18:25;21.52;;;14.52;;
49948;SDS011;35840;45.982;8.890;2023-04-12T13:20:52;23.13;;;15.15;;
49948;SDS011;35840;45.982;8.890;2023-04-12T13:23:19;22.92;;;13.60;;
49948;SDS011;35840;45.982;8.890;2023-04-12T13:25:46;24.17;;;14.07;;
49948;SDS011;35840;45.982;8.890;2023-04-12T13:28:12;21.48;;;14.80;;
49948;SDS011;35840;45.982;8.890;2023-04-12T13:30:42;23.02;;;15.32;;
49948;SDS011;35840;45.982;8.890;2023-04-12T13:33:08;19.25;;;13.73;;
49948;SDS011;35840;45.982;8.890;2023-04-12T13:35:35;22.02;;;15.45;;
49948;SDS011;35840;45.982;8.890;2023-04-12T13:38:02;20.55;;;13.63;;
49948;SDS011;35840;45.982;8.890;2023-04-12T13:40:29;26.00;;;15.38;;
49948;SDS011;35840;45.982;8.890;2023-04-12T13:42:56;23.85;;;15.57;;
49948;SDS011;35840;45.982;8.890;2023-04-12T13:45:22;22.33;;;14.82;;
49948;SDS011;35840;45.982;8.890;2023-04-12T13:47:49;24.73;;;15.23;;
49948;SDS011;35840;45.982;8.890;2023-04-12T13:50:16;20.73;;;14.43;;
49948;SDS011;35840;45.982;8.890;2023-04-12T13:52:43;24.75;;;15.38;;
49948;SDS011;35840;45.982;8.890;2023-04-12T13:55:10;21.33;;;14.88;;
49948;SDS011;35840;45.982;8.890;2023-04-12T13:57:36;19.95;;;14.73;;
49948;SDS011;35840;45.982;8.890;2023-04-12T14:00:03;27.50;;;14.70;;
49948;SDS011;35840;45.982;8.890;2023-04-12T14:02:31;22.10;;;16.02;;
49948;SDS011;35840;45.982;8.890;2023-04-12T14:04:58;25.65;;;14.65;;
49948;SDS011;35840;45.982;8.890;2023-04-12T14:07:25;25.40;;;14.25;;
49948;SDS011;35840;45.982;8.890;2023-04-12T14:09:54;22.67;;;14.65;;
49948;SDS011;35840;45.982;8.890;2023-04-12T14:12:23;24.35;;;15.52;;
49948;SDS011;35840;45.982;8.890;2023-04-12T14:14:49;23.05;;;14.52;;
49948;SDS011;35840;45.982;8.890;2023-04-12T14:17:16;20.65;;;14.90;;
49948;SDS011;35840;45.982;8.890;2023-04-12T14:19:43;25.83;;;14.68;;
49948;SDS011;35840;45.982;8.890;2023-04-12T14:22:10;22.40;;;14.82;;
49948;SDS011;35840;45.982;8.890;2023-04-12T14:24:36;20.40;;;15.45;;
49948;SDS011;35840;45.982;8.890;2023-04-12T14:27:03;24.55;;;14.23;;
49948;SDS011;35840;45.982;8.890;2023-04-12T14:29:30;23.42;;;14.45;;
49948;SDS011;35840;45.982;8.890;2023-04-12T14:31:57;21.88;;;15.27;;
49948;SDS011;35840;45.982;8.890;2023-04-12T14:34:24;25.17;;;16.90;;
49948;SDS011;35840;45.982;8.890;2023-04-12T14:36:51;24.90;;;16.60;;
49948;SDS011;35840;45.982;8.890;2023-04-12T14:39:17;22.38;;;16.38;;
49948;SDS011;35840;45.982;8.890;2023-04-12T14:41:44;23.77;;;15.60;;
49948;SDS011;35840;45.982;8.890;2023-04-12T14:44:11;23.50;;;15.65;;
49948;SDS011;35840;45.982;8.890;2023-04-12T14:46:38;22.23;;;15.48;;
49948;SDS011;35840;45.982;8.890;2023-04-12T14:49:05;22.67;;;15.75;;
49948;SDS011;35840;45.982;8.890;2023-04-12T14:51:32;24.45;;;15.65;;
49948;SDS011;35840;45.982;8.890;2023-04-12T14:53:59;25.10;;;15.32;;
49948;SDS011;35840;45.982;8.890;2023-04-12T14:56:26;24.42;;;15.13;;
49948;SDS011;35840;45.982;8.890;2023-04-12T14:58:56;22.77;;;14.73;;
49948;SDS011;35840;45.982;8.890;2023-04-12T15:01:23;24.88;;;15.65;;
49948;SDS011;35840;45.982;8.890;2023-04-12T15:03:51;22.65;;;15.43;;